Time;durP1;ratioP1;P1;durP2;ratioP2;P2;SDS_P1;SDS_P2;PMS_P1;PMS_P2;Temp;Humidity;BMP_temperature;BMP_pressure;BME280_temperature;BME280_humidity;BME280_pressure;Samples;Min_cycle;Max_cycle;Signal;HPM_P1;HPM_P2
2021/12/24 00:00:52;;;;;;;50.20;29.60;;;8.30;99.90;;;;;;2614456;47;20479;-73
2021/12/24 00:03:19;;;;;;;42.97;23.50;;;8.30;99.90;;;;;;2613933;47;20435;-74
2021/12/24 00:05:45;;;;;;;38.27;26.37;;;8.30;99.90;;;;;;2614707;39;20805;-74
2021/12/24 00:08:12;;;;;;;45.70;28.33;;;8.30;99.90;;;;;;2613465;54;20426;-74
2021/12/24 00:10:39;;;;;;;28.20;19.40;;;8.40;99.90;;;;;;2614233;54;20449;-75
2021/12/24 00:13:09;;;;;;;38.67;24.37;;;8.30;99.90;;;;;;2611317;47;20419;-74
2021/12/24 00:18:18;;;;;;;25.97;19.10;;;8.30;99.90;;;;;;2614462;54;20528;-75
2021/12/24 00:37:21;;;;;;;27.30;17.57;;;8.40;99.90;;;;;;2613463;54;20438;-73
2021/12/24 00:39:55;;;;;;;30.33;19.47;;;8.50;99.90;;;;;;2613393;54;20415;-73
2021/12/24 00:42:22;;;;;;;31.83;21.17;;;8.40;99.90;;;;;;2612023;47;20426;-72
2021/12/24 00:44:48;;;;;;;29.57;18.97;;;8.40;99.90;;;;;;2610919;54;20414;-74
2021/12/24 00:47:14;;;;;;;29.40;21.23;;;8.50;99.90;;;;;;2613687;54;20415;-75
2021/12/24 00:49:40;;;;;;;39.90;24.97;;;8.50;99.90;;;;;;2612767;54;20173;-75
2021/12/24 00:57:19;;;;;;;28.70;18.87;;;8.50;99.90;;;;;;2612751;54;20499;-75
2021/12/24 00:59:45;;;;;;;27.70;17.60;;;8.50;99.90;;;;;;2612283;54;20455;-72
2021/12/24 01:02:12;;;;;;;31.80;21.77;;;8.50;99.90;;;;;;2612293;54;21620;-74
2021/12/24 01:04:38;;;;;;;27.33;17.50;;;8.50;99.90;;;;;;2614442;54;20442;-74
2021/12/24 01:07:04;;;;;;;21.93;16.27;;;8.50;99.90;;;;;;2613451;54;20423;-73
2021/12/24 01:09:30;;;;;;;21.57;18.53;;;8.50;99.90;;;;;;2613034;54;20757;-73
2021/12/24 01:11:56;;;;;;;23.07;16.10;;;8.50;99.90;;;;;;2612920;47;20209;-73
2021/12/24 01:14:23;;;;;;;24.57;16.20;;;8.50;99.90;;;;;;2611228;47;20431;-73
2021/12/24 01:19:30;;;;;;;27.57;17.17;;;8.50;99.90;;;;;;2612583;39;20498;-73
2021/12/24 01:24:30;;;;;;;22.80;18.27;;;8.50;99.90;;;;;;2613440;47;20394;-73
2021/12/24 01:27:13;;;;;;;25.73;18.17;;;8.60;99.90;;;;;;2612441;54;20150;-73
2021/12/24 01:37:57;;;;;;;17.40;14.83;;;8.60;99.90;;;;;;2615117;39;20683;-76
2021/12/24 01:42:53;;;;;;;25.23;17.43;;;8.60;99.90;;;;;;2612879;47;20435;-73
2021/12/24 01:45:21;;;;;;;18.67;11.80;;;8.70;99.90;;;;;;2615778;39;20805;-75
2021/12/24 01:47:48;;;;;;;18.77;12.37;;;8.60;99.90;;;;;;2613516;39;20855;-73
2021/12/24 01:50:17;;;;;;;25.70;15.27;;;8.70;99.90;;;;;;2614745;47;20424;-74
2021/12/24 01:52:44;;;;;;;19.40;14.67;;;8.70;99.90;;;;;;2613882;39;20827;-73
2021/12/24 01:55:11;;;;;;;24.33;17.13;;;8.60;99.90;;;;;;2615075;54;20433;-73
2021/12/24 01:57:40;;;;;;;18.00;15.53;;;8.60;99.90;;;;;;2613997;39;20857;-73
2021/12/24 02:00:08;;;;;;;20.83;17.13;;;8.70;99.90;;;;;;2614837;39;20842;-73
2021/12/24 02:02:39;;;;;;;21.60;15.10;;;8.70;99.90;;;;;;2614860;54;20450;-74
2021/12/24 02:05:07;;;;;;;25.90;17.50;;;8.70;99.90;;;;;;2614656;47;20452;-74
2021/12/24 02:07:32;;;;;;;30.10;20.23;;;8.80;99.90;;;;;;2615165;54;20531;-74
2021/12/24 02:09:58;;;;;;;23.73;16.00;;;8.70;99.90;;;;;;2612618;47;20429;-74
2021/12/24 02:12:25;;;;;;;24.70;16.10;;;8.70;99.90;;;;;;2613631;47;20177;-74
2021/12/24 02:14:55;;;;;;;17.87;13.33;;;8.70;99.90;;;;;;2614201;47;20456;-73
2021/12/24 02:31:06;;;;;;;30.90;21.33;;;8.70;99.90;;;;;;2612874;54;20431;-73
2021/12/24 02:33:33;;;;;;;31.23;20.73;;;8.80;99.90;;;;;;2613800;47;20426;-74
2021/12/24 02:35:58;;;;;;;37.10;21.73;;;8.80;99.90;;;;;;2614735;54;20850;-74
2021/12/24 02:38:24;;;;;;;32.53;18.40;;;8.80;99.90;;;;;;2613925;54;20414;-76
2021/12/24 02:40:51;;;;;;;30.47;21.47;;;8.80;99.90;;;;;;2614300;54;20267;-74
2021/12/24 02:43:20;;;;;;;26.40;18.47;;;8.80;99.90;;;;;;2613825;54;20411;-74
2021/12/24 02:45:46;;;;;;;32.53;20.80;;;8.80;99.90;;;;;;2614785;54;21030;-74
2021/12/24 02:56:25;;;;;;;30.87;21.60;;;8.80;99.90;;;;;;2611830;47;20434;-74
2021/12/24 02:58:52;;;;;;;30.40;19.13;;;8.90;99.90;;;;;;2613464;50;20535;-74
2021/12/24 03:01:21;;;;;;;38.50;26.00;;;8.90;99.90;;;;;;2614222;51;20423;-74
2021/12/24 03:03:48;;;;;;;38.10;24.43;;;8.90;99.90;;;;;;2612720;54;20427;-75
2021/12/24 03:06:21;;;;;;;26.33;17.93;;;8.90;99.90;;;;;;2613872;54;20975;-75
2021/12/24 03:08:47;;;;;;;24.87;15.07;;;8.90;99.90;;;;;;2614149;47;20430;-74
2021/12/24 03:11:13;;;;;;;35.07;22.23;;;8.90;99.90;;;;;;2613367;46;20552;-74
2021/12/24 03:13:40;;;;;;;27.37;19.17;;;8.90;99.90;;;;;;2613950;54;20586;-74
2021/12/24 03:16:08;;;;;;;34.73;21.90;;;8.90;99.90;;;;;;2614606;47;20419;-76
2021/12/24 03:18:36;;;;;;;26.83;17.07;;;8.90;99.90;;;;;;2611781;47;20455;-74
2021/12/24 03:23:37;;;;;;;33.07;20.63;;;8.90;99.90;;;;;;2613608;39;20888;-73
2021/12/24 03:26:05;;;;;;;26.30;13.77;;;8.90;99.90;;;;;;2613867;54;20417;-73
2021/12/24 03:28:31;;;;;;;27.57;20.03;;;9.00;99.90;;;;;;2613801;54;20400;-75
2021/12/24 03:30:59;;;;;;;36.97;20.30;;;9.00;99.90;;;;;;2614303;47;20431;-73
2021/12/24 03:33:26;;;;;;;27.00;20.20;;;9.00;99.90;;;;;;2614210;54;20420;-74
2021/12/24 03:35:53;;;;;;;36.13;23.00;;;9.00;99.90;;;;;;2615019;47;20415;-74
2021/12/24 03:38:18;;;;;;;25.07;14.30;;;9.00;99.90;;;;;;2613983;47;20435;-74
2021/12/24 03:40:44;;;;;;;24.80;18.90;;;9.00;99.90;;;;;;2615597;54;20460;-74
2021/12/24 03:43:10;;;;;;;31.00;22.40;;;9.00;99.90;;;;;;2614210;54;20172;-74
2021/12/24 03:45:45;;;;;;;31.23;19.10;;;9.00;99.90;;;;;;2614484;47;20434;-73
2021/12/24 03:48:19;;;;;;;32.73;23.50;;;9.10;99.90;;;;;;2614032;54;20429;-75
2021/12/24 03:50:55;;;;;;;23.13;16.70;;;9.10;99.90;;;;;;2613541;47;20434;-73
2021/12/24 03:56:06;;;;;;;30.73;21.20;;;9.00;99.90;;;;;;2614922;54;20547;-73
2021/12/24 03:58:32;;;;;;;33.83;21.03;;;9.10;99.90;;;;;;2614759;47;20443;-77
2021/12/24 04:01:16;;;;;;;37.83;27.40;;;9.00;99.90;;;;;;2615262;54;20478;-73
2021/12/24 04:04:01;;;;;;;29.47;17.30;;;9.00;99.90;;;;;;2615011;54;20555;-74
2021/12/24 04:06:47;;;;;;;36.77;24.03;;;9.00;99.90;;;;;;2614848;54;20507;-73
2021/12/24 04:09:32;;;;;;;33.40;22.57;;;9.10;99.90;;;;;;2615304;54;20431;-74
2021/12/24 04:12:24;;;;;;;36.63;24.63;;;9.10;99.90;;;;;;2614730;54;20422;-74
2021/12/24 04:14:52;;;;;;;33.40;19.90;;;9.10;99.90;;;;;;2614817;47;20435;-73
2021/12/24 04:17:20;;;;;;;25.73;17.10;;;9.10;99.90;;;;;;2614547;54;20447;-74
2021/12/24 04:25:15;;;;;;;31.53;20.93;;;9.10;99.90;;;;;;2615392;54;20428;-75
2021/12/24 04:27:41;;;;;;;37.60;23.37;;;9.10;99.90;;;;;;2613765;47;20450;-73
2021/12/24 04:30:14;;;;;;;38.97;24.83;;;9.00;99.90;;;;;;2614802;47;20434;-74
2021/12/24 04:51:23;;;;;;;39.60;26.00;;;9.10;99.90;;;;;;2614865;47;20958;-74
2021/12/24 05:05:37;;;;;;;41.40;25.27;;;9.10;99.90;;;;;;2613103;54;20431;-73
2021/12/24 05:08:21;;;;;;;37.13;25.70;;;9.10;99.90;;;;;;2612579;48;20435;-73
2021/12/24 05:10:51;;;;;;;34.20;22.93;;;9.10;99.90;;;;;;2613573;47;20447;-74
2021/12/24 05:13:20;;;;;;;30.37;18.17;;;9.10;99.90;;;;;;2612536;47;21034;-72
2021/12/24 05:16:46;;;;;;;44.07;26.63;;;9.10;99.90;;;;;;2613315;47;20428;-76
2021/12/24 05:22:48;;;;;;;35.73;24.13;;;9.00;99.90;;;;;;2613363;54;20430;-73
2021/12/24 05:25:18;;;;;;;44.63;28.40;;;9.10;99.90;;;;;;2614150;47;20505;-74
2021/12/24 05:27:44;;;;;;;40.40;28.20;;;9.10;99.90;;;;;;2612827;47;20994;-74
2021/12/24 05:30:10;;;;;;;35.13;22.83;;;9.10;99.90;;;;;;2613717;54;20465;-75
2021/12/24 05:32:36;;;;;;;33.17;19.90;;;9.10;99.90;;;;;;2613413;54;20166;-74
2021/12/24 05:35:04;;;;;;;38.10;24.57;;;9.10;99.90;;;;;;2612843;54;20439;-74
2021/12/24 05:37:33;;;;;;;29.00;17.40;;;9.00;99.90;;;;;;2613155;54;20434;-74
2021/12/24 05:39:59;;;;;;;19.20;13.27;;;9.00;99.90;;;;;;2613646;47;20519;-74
2021/12/24 05:42:31;;;;;;;34.97;21.93;;;9.00;99.90;;;;;;2612950;47;20246;-75
2021/12/24 05:45:03;;;;;;;36.87;21.83;;;9.00;99.90;;;;;;2613207;47;20420;-75
2021/12/24 05:47:52;;;;;;;29.23;17.70;;;9.10;99.90;;;;;;2612204;54;20417;-73
2021/12/24 05:50:18;;;;;;;30.83;20.67;;;9.10;99.90;;;;;;2612027;54;20429;-74
2021/12/24 05:52:44;;;;;;;30.70;21.67;;;9.10;99.90;;;;;;2612142;54;20510;-77
2021/12/24 05:55:32;;;;;;;41.33;21.37;;;9.10;99.90;;;;;;2614251;39;20847;-73
2021/12/24 05:58:09;;;;;;;48.53;23.13;;;9.10;99.90;;;;;;2613091;50;20482;-74
2021/12/24 06:00:43;;;;;;;31.97;18.97;;;9.10;99.90;;;;;;2613847;47;20430;-73
2021/12/24 06:03:10;;;;;;;30.40;19.03;;;9.20;99.90;;;;;;2614545;39;20825;-73
2021/12/24 06:05:37;;;;;;;36.00;20.70;;;9.20;99.90;;;;;;2614587;39;20831;-74
2021/12/24 06:08:05;;;;;;;30.40;20.70;;;9.20;99.90;;;;;;2613675;54;20423;-74
2021/12/24 06:10:33;;;;;;;42.57;27.43;;;9.10;99.90;;;;;;2614213;54;20419;-74
2021/12/24 06:13:00;;;;;;;35.50;23.17;;;9.10;99.90;;;;;;2613519;54;20439;-74
2021/12/24 06:15:26;;;;;;;39.60;26.20;;;9.10;99.90;;;;;;2614203;54;20419;-74
2021/12/24 06:17:55;;;;;;;43.53;29.37;;;9.20;99.90;;;;;;2614099;46;21142;-76
2021/12/24 06:20:23;;;;;;;34.83;23.00;;;9.20;99.90;;;;;;2614851;47;20419;-73
2021/12/24 06:22:49;;;;;;;45.60;26.93;;;9.20;99.90;;;;;;2615444;54;20421;-74
2021/12/24 06:25:17;;;;;;;44.13;25.90;;;9.20;99.90;;;;;;2615570;54;20433;-75
2021/12/24 06:27:44;;;;;;;53.83;28.50;;;9.20;99.90;;;;;;2614569;47;20522;-74
2021/12/24 06:30:11;;;;;;;42.00;26.77;;;9.20;99.90;;;;;;2616241;39;20854;-74
2021/12/24 06:32:37;;;;;;;30.90;19.50;;;9.20;99.90;;;;;;2615010;54;20420;-77
2021/12/24 06:35:05;;;;;;;40.27;23.07;;;9.20;99.90;;;;;;2615082;54;20518;-74
2021/12/24 06:37:32;;;;;;;38.37;20.57;;;9.20;99.90;;;;;;2614723;47;20424;-74
2021/12/24 06:39:58;;;;;;;31.10;20.90;;;9.20;99.90;;;;;;2613895;47;20448;-74
2021/12/24 06:42:24;;;;;;;37.30;24.67;;;9.20;99.90;;;;;;2614906;54;20964;-74
2021/12/24 06:44:49;;;;;;;30.20;20.47;;;9.20;99.90;;;;;;2615388;54;20161;-73
2021/12/24 06:47:15;;;;;;;29.13;17.13;;;9.20;99.90;;;;;;2615171;54;20422;-75
2021/12/24 06:49:41;;;;;;;44.77;26.70;;;9.20;99.90;;;;;;2615414;54;20435;-74
2021/12/24 06:52:07;;;;;;;38.30;22.57;;;9.20;99.90;;;;;;2614926;39;20811;-74
2021/12/24 06:54:33;;;;;;;27.97;19.50;;;9.30;99.90;;;;;;2615006;54;20230;-75
2021/12/24 06:57:02;;;;;;;42.33;25.23;;;9.30;99.90;;;;;;2613444;46;20181;-73
2021/12/24 06:59:28;;;;;;;40.27;22.03;;;9.30;99.90;;;;;;2613437;47;20446;-75
2021/12/24 07:01:59;;;;;;;29.60;18.07;;;9.30;99.90;;;;;;2614328;51;20496;-74
2021/12/24 07:04:26;;;;;;;36.00;22.57;;;9.30;99.90;;;;;;2615417;47;20418;-73
2021/12/24 07:06:52;;;;;;;36.63;22.13;;;9.30;99.90;;;;;;2614562;54;20441;-74
2021/12/24 07:09:18;;;;;;;33.90;20.93;;;9.30;99.90;;;;;;2614769;54;20416;-74
2021/12/24 07:11:44;;;;;;;31.27;21.23;;;9.30;99.90;;;;;;2615808;54;20423;-73
2021/12/24 07:14:10;;;;;;;25.97;17.37;;;9.30;99.90;;;;;;2615331;54;20228;-74
2021/12/24 07:16:36;;;;;;;35.13;21.57;;;9.30;99.90;;;;;;2615481;39;20570;-74
2021/12/24 07:19:02;;;;;;;40.57;24.43;;;9.30;99.90;;;;;;2613970;54;20466;-73
2021/12/24 07:21:28;;;;;;;31.90;21.63;;;9.30;99.90;;;;;;2614569;47;20990;-74
2021/12/24 07:23:54;;;;;;;33.20;21.60;;;9.30;99.90;;;;;;2614573;54;20522;-73
2021/12/24 07:26:21;;;;;;;31.60;16.67;;;9.30;99.90;;;;;;2614948;54;20422;-74
2021/12/24 07:28:48;;;;;;;43.23;16.83;;;9.30;99.90;;;;;;2614256;39;20834;-73
2021/12/24 07:31:14;;;;;;;34.90;21.00;;;9.40;99.90;;;;;;2615141;54;20455;-77
2021/12/24 07:33:39;;;;;;;31.77;19.53;;;9.40;99.90;;;;;;2611962;46;21085;-73
2021/12/24 07:36:05;;;;;;;34.40;19.57;;;9.40;99.90;;;;;;2610760;47;20423;-73
2021/12/24 07:38:31;;;;;;;27.17;18.00;;;9.40;99.90;;;;;;2611273;47;20238;-76
2021/12/24 07:40:58;;;;;;;35.13;21.70;;;9.40;99.90;;;;;;2614708;39;20804;-74
2021/12/24 07:43:24;;;;;;;27.30;18.30;;;9.40;99.90;;;;;;2613056;54;20999;-74
2021/12/24 07:45:51;;;;;;;36.20;21.67;;;9.40;99.90;;;;;;2614496;47;20420;-73
2021/12/24 07:48:26;;;;;;;40.03;24.17;;;9.40;99.90;;;;;;2613757;47;20166;-75
2021/12/24 07:53:18;;;;;;;41.53;23.87;;;9.40;99.90;;;;;;2613269;54;20948;-74
2021/12/24 07:55:44;;;;;;;28.57;18.93;;;9.40;99.90;;;;;;2611878;54;20154;-74
2021/12/24 07:58:13;;;;;;;30.27;19.93;;;9.40;99.90;;;;;;2613374;54;20158;-74
2021/12/24 08:00:39;;;;;;;40.97;23.10;;;9.40;99.90;;;;;;2615332;54;20439;-75
2021/12/24 08:03:05;;;;;;;26.73;20.57;;;9.40;99.90;;;;;;2611649;49;20412;-74
2021/12/24 08:05:34;;;;;;;40.60;21.50;;;9.40;99.90;;;;;;2613568;54;20419;-74
2021/12/24 08:08:01;;;;;;;39.80;26.23;;;9.40;99.90;;;;;;2612807;51;20414;-74
2021/12/24 08:10:30;;;;;;;35.90;17.43;;;9.40;99.90;;;;;;2614783;54;21158;-74
2021/12/24 08:12:56;;;;;;;44.97;18.30;;;9.40;99.90;;;;;;2613181;54;20415;-73
2021/12/24 08:15:22;;;;;;;33.20;21.10;;;9.40;99.90;;;;;;2613261;47;20492;-73
2021/12/24 08:17:48;;;;;;;30.60;18.60;;;9.40;99.90;;;;;;2612586;39;21010;-74
2021/12/24 08:20:15;;;;;;;32.57;21.97;;;9.40;99.90;;;;;;2614890;54;20391;-74
2021/12/24 08:22:42;;;;;;;39.33;22.20;;;9.50;99.90;;;;;;2614298;54;20502;-74
2021/12/24 08:25:09;;;;;;;32.80;20.17;;;9.40;99.90;;;;;;2614354;54;20424;-75
2021/12/24 08:27:38;;;;;;;33.40;22.63;;;9.50;99.90;;;;;;2613980;47;20424;-75
2021/12/24 08:30:06;;;;;;;31.47;17.40;;;9.50;99.90;;;;;;2614520;39;21338;-73
2021/12/24 08:32:37;;;;;;;26.37;17.53;;;9.50;99.90;;;;;;2614084;54;20411;-74
2021/12/24 08:35:04;;;;;;;27.00;15.70;;;9.50;99.90;;;;;;2614877;39;20819;-76
2021/12/24 08:37:30;;;;;;;30.77;20.90;;;9.50;99.90;;;;;;2612993;54;21097;-77
2021/12/24 08:39:56;;;;;;;33.33;19.60;;;9.50;99.90;;;;;;2612937;47;20830;-74
2021/12/24 08:42:22;;;;;;;37.43;21.30;;;9.50;99.90;;;;;;2613098;54;20984;-74
2021/12/24 08:44:48;;;;;;;36.43;18.10;;;9.40;99.90;;;;;;2613863;54;20178;-75
2021/12/24 08:47:14;;;;;;;22.00;14.67;;;9.40;99.90;;;;;;2612864;54;20388;-74
2021/12/24 08:49:40;;;;;;;39.60;21.97;;;9.40;99.90;;;;;;2613964;54;20158;-74
2021/12/24 08:52:06;;;;;;;30.33;19.17;;;9.40;99.90;;;;;;2612471;39;21686;-74
2021/12/24 08:54:32;;;;;;;34.23;19.33;;;9.40;99.90;;;;;;2613556;54;20960;-74
2021/12/24 08:56:59;;;;;;;28.17;19.43;;;9.50;99.90;;;;;;2614114;47;20429;-75
2021/12/24 08:59:25;;;;;;;32.03;18.57;;;9.40;99.90;;;;;;2614593;54;20483;-73
2021/12/24 09:01:52;;;;;;;37.37;22.67;;;9.50;99.90;;;;;;2614522;54;20971;-73
2021/12/24 09:04:18;;;;;;;25.33;15.77;;;9.50;99.90;;;;;;2615186;54;20447;-73
2021/12/24 09:06:43;;;;;;;24.23;16.47;;;9.40;99.90;;;;;;2614351;39;20815;-74
2021/12/24 09:09:10;;;;;;;28.80;20.87;;;9.40;99.90;;;;;;2613329;54;20160;-74
2021/12/24 09:11:38;;;;;;;26.73;19.00;;;9.40;99.90;;;;;;2613375;47;20201;-74
2021/12/24 09:14:05;;;;;;;19.60;11.70;;;9.40;99.90;;;;;;2614400;54;20462;-74
2021/12/24 09:16:33;;;;;;;33.50;19.10;;;9.50;99.90;;;;;;2614846;54;20488;-74
2021/12/24 09:19:04;;;;;;;21.30;15.60;;;9.60;99.90;;;;;;2613328;54;21038;-75
2021/12/24 09:21:30;;;;;;;21.40;13.30;;;9.70;99.90;;;;;;2615196;54;20429;-74
2021/12/24 09:23:57;;;;;;;33.50;17.70;;;9.70;99.90;;;;;;2614423;39;20820;-75
2021/12/24 09:26:28;;;;;;;39.90;20.97;;;9.60;99.90;;;;;;2613722;54;20423;-73
2021/12/24 09:28:56;;;;;;;33.47;20.47;;;9.70;99.90;;;;;;2614438;54;20427;-73
2021/12/24 09:31:23;;;;;;;42.53;20.23;;;9.70;99.90;;;;;;2614999;54;20466;-74
2021/12/24 09:33:49;;;;;;;25.13;15.67;;;9.70;99.90;;;;;;2614141;54;20418;-74
2021/12/24 09:36:21;;;;;;;26.47;16.13;;;9.60;99.90;;;;;;2615337;54;20447;-73
2021/12/24 09:38:47;;;;;;;30.50;17.27;;;9.60;99.90;;;;;;2614217;54;20424;-75
2021/12/24 09:41:13;;;;;;;31.80;19.80;;;9.50;99.90;;;;;;2614547;54;20439;-73
2021/12/24 09:43:40;;;;;;;31.97;20.13;;;9.60;99.90;;;;;;2614844;54;20151;-72
2021/12/24 09:46:06;;;;;;;33.27;19.20;;;9.60;99.90;;;;;;2614790;39;20656;-76
2021/12/24 09:48:32;;;;;;;34.77;19.63;;;9.60;99.90;;;;;;2613939;54;20535;-73
2021/12/24 09:50:58;;;;;;;32.20;19.20;;;9.60;99.90;;;;;;2614584;54;20672;-73
2021/12/24 09:53:24;;;;;;;37.77;20.67;;;9.60;99.90;;;;;;2614901;47;20415;-74
2021/12/24 09:55:50;;;;;;;23.37;14.67;;;9.60;99.90;;;;;;2613562;54;20422;-73
2021/12/24 09:58:16;;;;;;;26.10;18.67;;;9.60;99.90;;;;;;2615575;54;20412;-73
2021/12/24 10:00:42;;;;;;;35.03;18.50;;;9.70;99.90;;;;;;2616170;39;20530;-74
2021/12/24 10:03:08;;;;;;;29.13;21.27;;;9.70;99.90;;;;;;2614793;54;20457;-75
2021/12/24 10:05:41;;;;;;;33.17;21.53;;;9.60;99.90;;;;;;2615458;54;20412;-72
2021/12/24 10:08:09;;;;;;;37.53;22.97;;;9.90;99.90;;;;;;2614569;46;20166;-74
2021/12/24 10:10:40;;;;;;;33.27;20.53;;;9.80;99.90;;;;;;2616191;54;20439;-72
2021/12/24 10:13:25;;;;;;;27.83;20.37;;;9.80;99.90;;;;;;2615743;54;21113;-73
2021/12/24 10:16:22;;;;;;;36.23;21.50;;;9.90;99.90;;;;;;2616029;39;20773;-74
2021/12/24 10:18:54;;;;;;;35.10;21.00;;;9.90;99.90;;;;;;2613862;54;21365;-76
2021/12/24 10:21:24;;;;;;;35.87;18.13;;;9.80;99.90;;;;;;2613774;54;20485;-73
2021/12/24 10:23:50;;;;;;;51.27;21.47;;;9.80;99.90;;;;;;2613296;47;20479;-73
2021/12/24 10:26:37;;;;;;;35.60;19.63;;;10.00;99.90;;;;;;2614917;54;20416;-74
2021/12/24 10:29:09;;;;;;;37.73;22.50;;;9.90;99.90;;;;;;2613844;54;20162;-75
2021/12/24 10:31:47;;;;;;;21.17;12.47;;;9.90;99.90;;;;;;2614143;54;20414;-74
2021/12/24 10:34:15;;;;;;;31.97;21.07;;;9.80;99.90;;;;;;2614127;54;20398;-75
2021/12/24 10:36:54;;;;;;;34.00;17.03;;;9.80;99.90;;;;;;2613919;54;20430;-74
2021/12/24 10:39:26;;;;;;;39.77;17.43;;;9.80;99.90;;;;;;2613307;47;20439;-74
2021/12/24 10:41:56;;;;;;;28.53;15.13;;;9.80;99.90;;;;;;2613805;54;20419;-74
2021/12/24 10:44:31;;;;;;;21.40;16.50;;;9.70;99.90;;;;;;2613746;54;20419;-74
2021/12/24 10:47:01;;;;;;;19.40;13.07;;;9.70;99.90;;;;;;2612958;39;20895;-74
2021/12/24 10:54:53;;;;;;;20.03;12.57;;;9.50;99.90;;;;;;2612535;54;20506;-74
2021/12/24 10:57:23;;;;;;;22.70;12.13;;;9.40;99.90;;;;;;2614955;47;20427;-76
2021/12/24 10:59:51;;;;;;;21.23;12.87;;;9.40;99.90;;;;;;2613005;54;20396;-76
2021/12/24 11:02:18;;;;;;;23.80;15.63;;;9.30;99.90;;;;;;2614223;54;20924;-73
2021/12/24 11:04:44;;;;;;;24.07;14.97;;;9.30;99.90;;;;;;2614248;54;20422;-73
2021/12/24 11:07:33;;;;;;;23.10;12.93;;;9.40;99.90;;;;;;2614272;54;20404;-75
2021/12/24 11:10:38;;;;;;;20.20;13.47;;;9.50;99.90;;;;;;2615234;54;20419;-74
2021/12/24 11:13:09;;;;;;;26.47;14.97;;;9.50;99.90;;;;;;2613307;47;20562;-73
2021/12/24 11:15:35;;;;;;;23.60;11.37;;;9.50;99.90;;;;;;2614863;54;20425;-73
2021/12/24 11:18:24;;;;;;;24.60;13.90;;;9.50;99.90;;;;;;2614301;54;20420;-74
2021/12/24 11:21:05;;;;;;;25.07;12.93;;;9.60;99.90;;;;;;2614780;54;20192;-75
2021/12/24 11:23:36;;;;;;;21.00;12.30;;;9.50;99.90;;;;;;2613629;54;20498;-74
2021/12/24 11:26:12;;;;;;;19.70;12.87;;;9.50;99.90;;;;;;2615314;54;20503;-74
2021/12/24 11:28:39;;;;;;;21.03;14.00;;;9.40;99.90;;;;;;2615673;39;20796;-74
2021/12/24 11:31:10;;;;;;;28.70;15.27;;;9.40;99.90;;;;;;2614701;54;21091;-74
2021/12/24 11:33:38;;;;;;;21.20;14.13;;;9.50;99.90;;;;;;2613768;54;20885;-73
2021/12/24 11:36:07;;;;;;;29.73;14.50;;;9.50;99.90;;;;;;2613662;54;20973;-74
2021/12/24 11:38:36;;;;;;;19.93;12.37;;;9.50;99.90;;;;;;2613230;54;20415;-75
2021/12/24 11:41:04;;;;;;;35.03;14.40;;;9.60;99.90;;;;;;2614920;54;20392;-74
2021/12/24 11:43:36;;;;;;;22.27;13.90;;;9.70;99.90;;;;;;2613296;47;20417;-74
2021/12/24 11:46:04;;;;;;;19.20;13.40;;;9.70;99.90;;;;;;2616057;54;20411;-74
2021/12/24 11:48:32;;;;;;;25.13;13.70;;;9.70;99.90;;;;;;2615675;54;20415;-75
2021/12/24 11:51:00;;;;;;;17.57;12.03;;;9.80;99.90;;;;;;2615632;39;20800;-74
2021/12/24 11:53:27;;;;;;;35.57;16.60;;;9.70;99.90;;;;;;2614831;51;20420;-75
2021/12/24 11:55:53;;;;;;;19.97;12.57;;;9.80;99.90;;;;;;2616115;39;20858;-74
2021/12/24 11:58:24;;;;;;;26.50;14.67;;;9.90;99.90;;;;;;2612511;54;20420;-73
2021/12/24 12:00:55;;;;;;;26.60;13.20;;;9.80;99.90;;;;;;2613278;47;20426;-74
2021/12/24 12:03:46;;;;;;;19.33;13.40;;;9.70;99.90;;;;;;2614522;31;20919;-73
2021/12/24 12:06:24;;;;;;;17.17;10.53;;;9.80;99.90;;;;;;2613977;54;20413;-72
2021/12/24 12:09:01;;;;;;;19.53;10.27;;;9.80;99.90;;;;;;2613833;47;20434;-74
2021/12/24 12:11:31;;;;;;;24.47;15.97;;;9.70;99.90;;;;;;2613806;54;20415;-74
2021/12/24 12:14:04;;;;;;;29.73;17.77;;;9.80;99.90;;;;;;2614186;54;20450;-72
2021/12/24 12:16:42;;;;;;;17.77;12.13;;;9.80;99.90;;;;;;2613329;54;20418;-75
2021/12/24 12:19:30;;;;;;;28.07;14.67;;;9.80;99.90;;;;;;2612763;39;20743;-74
2021/12/24 12:25:32;;;;;;;14.53;10.10;;;9.70;99.90;;;;;;2612437;47;21189;-74
2021/12/24 12:28:10;;;;;;;22.63;16.00;;;9.80;99.90;;;;;;2611656;54;20987;-75
2021/12/24 12:30:39;;;;;;;17.47;11.70;;;9.60;99.90;;;;;;2611945;47;20411;-75
2021/12/24 12:33:13;;;;;;;22.70;11.57;;;9.70;99.90;;;;;;2612520;54;21003;-76
2021/12/24 12:35:46;;;;;;;21.50;15.60;;;9.60;99.90;;;;;;2611959;39;20931;-75
2021/12/24 12:38:35;;;;;;;25.30;18.03;;;9.70;99.90;;;;;;2612671;54;20437;-74
2021/12/24 12:41:37;;;;;;;31.13;16.23;;;9.60;99.90;;;;;;2613321;39;20845;-74
2021/12/24 12:44:05;;;;;;;31.67;20.80;;;9.60;99.90;;;;;;2629902;36;20443;-73
2021/12/24 12:46:39;;;;;;;27.63;15.33;;;9.60;99.90;;;;;;2612146;54;20407;-76
2021/12/24 12:49:09;;;;;;;28.30;20.27;;;9.60;99.90;;;;;;2611485;47;20454;-73
2021/12/24 12:51:55;;;;;;;31.23;20.30;;;9.60;99.90;;;;;;2610327;54;20432;-75
2021/12/24 12:54:36;;;;;;;21.80;15.37;;;9.70;99.90;;;;;;2611911;54;20991;-74
2021/12/24 12:57:18;;;;;;;31.23;21.80;;;9.50;99.90;;;;;;2612010;47;20408;-76
2021/12/24 13:00:17;;;;;;;26.30;16.43;;;9.60;99.90;;;;;;2612306;46;20431;-74
2021/12/24 13:03:01;;;;;;;30.43;16.83;;;9.60;99.90;;;;;;2612355;47;20434;-73
2021/12/24 13:05:29;;;;;;;36.57;19.30;;;9.50;99.90;;;;;;2614134;54;20409;-76
2021/12/24 13:07:59;;;;;;;37.00;19.47;;;9.40;99.90;;;;;;2614586;31;20822;-74
2021/12/24 13:10:29;;;;;;;23.23;13.00;;;9.40;99.90;;;;;;2613651;47;20424;-74
2021/12/24 13:13:03;;;;;;;27.07;15.63;;;9.30;99.90;;;;;;2613559;39;20818;-78
2021/12/24 13:15:29;;;;;;;25.23;17.43;;;9.40;99.90;;;;;;2612595;47;20402;-74
2021/12/24 13:18:01;;;;;;;32.07;22.17;;;9.40;99.90;;;;;;2613662;51;20438;-75
2021/12/24 13:20:45;;;;;;;24.97;20.30;;;9.40;99.90;;;;;;2613789;54;20485;-74
2021/12/24 13:23:21;;;;;;;36.13;23.07;;;9.40;99.90;;;;;;2613372;54;20404;-74
2021/12/24 13:25:48;;;;;;;27.87;17.83;;;9.40;99.90;;;;;;2613471;54;20458;-75
2021/12/24 13:28:14;;;;;;;49.73;25.00;;;9.40;99.90;;;;;;2613241;54;20419;-74
2021/12/24 13:30:40;;;;;;;31.23;19.60;;;9.40;99.90;;;;;;2614336;54;20395;-74
2021/12/24 13:33:08;;;;;;;49.37;15.93;;;9.40;99.90;;;;;;2614088;54;20411;-74
2021/12/24 13:35:49;;;;;;;37.03;21.10;;;9.40;99.90;;;;;;2611607;47;20687;-74
2021/12/24 13:38:28;;;;;;;39.50;21.17;;;9.40;99.90;;;;;;2612286;54;20415;-75
2021/12/24 13:40:55;;;;;;;39.03;21.20;;;9.50;99.90;;;;;;2610420;54;20413;-74
2021/12/24 13:43:23;;;;;;;37.50;21.40;;;9.50;99.90;;;;;;2611578;47;20932;-73
2021/12/24 13:45:52;;;;;;;23.00;14.27;;;9.50;99.90;;;;;;2613547;47;20434;-73
2021/12/24 13:48:28;;;;;;;39.30;23.40;;;9.50;99.90;;;;;;2613098;54;20464;-74
2021/12/24 13:56:39;;;;;;;31.63;22.00;;;9.50;99.90;;;;;;2614331;54;20459;-75
2021/12/24 13:59:06;;;;;;;35.20;20.67;;;9.60;99.90;;;;;;2611414;54;20407;-76
2021/12/24 14:01:33;;;;;;;29.10;17.67;;;9.50;99.90;;;;;;2613351;39;20760;-75
2021/12/24 14:04:01;;;;;;;27.47;18.90;;;9.60;99.90;;;;;;2612667;54;20432;-74
2021/12/24 14:06:36;;;;;;;37.03;20.93;;;9.50;99.90;;;;;;2612725;54;20411;-75
2021/12/24 14:09:23;;;;;;;37.70;21.83;;;9.50;99.90;;;;;;2614744;54;20979;-74
2021/12/24 14:11:52;;;;;;;31.40;19.50;;;9.50;99.90;;;;;;2612828;47;20458;-77
2021/12/24 14:14:26;;;;;;;40.23;21.50;;;9.50;99.90;;;;;;2613766;54;20403;-77
2021/12/24 14:22:20;;;;;;;24.03;16.50;;;9.70;99.90;;;;;;2613907;54;20428;-76
2021/12/24 14:24:57;;;;;;;28.63;18.20;;;9.60;99.90;;;;;;2613978;39;20854;-73
2021/12/24 14:27:27;;;;;;;31.00;19.00;;;9.60;99.90;;;;;;2612765;54;20425;-73
2021/12/24 14:30:17;;;;;;;32.83;21.30;;;9.70;99.90;;;;;;2611173;46;20432;-72
2021/12/24 14:32:47;;;;;;;24.47;14.93;;;9.50;99.90;;;;;;2612235;54;20421;-78
2021/12/24 14:35:22;;;;;;;31.30;15.77;;;9.40;99.90;;;;;;2610573;54;20424;-73
2021/12/24 14:37:59;;;;;;;26.90;19.67;;;9.50;99.90;;;;;;2612859;54;20398;-73
2021/12/24 14:40:27;;;;;;;36.07;21.23;;;9.40;99.90;;;;;;2614826;54;20466;-74
2021/12/24 14:42:54;;;;;;;25.03;13.10;;;9.40;99.90;;;;;;2615185;54;20436;-72
2021/12/24 14:45:34;;;;;;;36.63;22.33;;;9.50;99.90;;;;;;2614861;54;21016;-73
2021/12/24 14:48:03;;;;;;;30.03;15.73;;;9.50;99.90;;;;;;2615210;39;21224;-73
2021/12/24 14:50:31;;;;;;;29.17;18.37;;;9.50;99.90;;;;;;2614031;54;20535;-73
2021/12/24 14:53:26;;;;;;;23.70;14.87;;;9.40;99.90;;;;;;2613780;39;20891;-72
2021/12/24 14:55:53;;;;;;;25.80;15.53;;;9.60;99.90;;;;;;2614879;54;20423;-73
2021/12/24 14:58:34;;;;;;;25.20;17.40;;;9.60;99.90;;;;;;2613780;46;20430;-76
2021/12/24 15:01:11;;;;;;;21.10;17.13;;;9.60;99.90;;;;;;2613465;54;20534;-73